sensor_id;sensor_type;location;lat;lon;timestamp;P1;durP1;ratioP1;P2;durP2;ratioP2
21806;SDS011;11065;50.786;7.840;2022-11-20T00:01:26;8.53;;;5.70;;
21806;SDS011;11065;50.786;7.840;2022-11-20T00:03:54;8.43;;;5.70;;
21806;SDS011;11065;50.786;7.840;2022-11-20T00:06:24;9.63;;;5.50;;
21806;SDS011;11065;50.786;7.840;2022-11-20T00:08:56;8.43;;;6.30;;
21806;SDS011;11065;50.786;7.840;2022-11-20T00:11:25;7.87;;;5.90;;
21806;SDS011;11065;50.786;7.840;2022-11-20T00:13:55;9.20;;;6.30;;
21806;SDS011;11065;50.786;7.840;2022-11-20T00:16:26;7.23;;;5.67;;
21806;SDS011;11065;50.786;7.840;2022-11-20T00:18:55;7.50;;;5.30;;
21806;SDS011;11065;50.786;7.840;2022-11-20T00:21:23;8.00;;;5.90;;
21806;SDS011;11065;50.786;7.840;2022-11-20T00:23:53;8.43;;;5.70;;
21806;SDS011;11065;50.786;7.840;2022-11-20T00:26:21;9.53;;;6.43;;
21806;SDS011;11065;50.786;7.840;2022-11-20T00:28:50;8.07;;;6.13;;
21806;SDS011;11065;50.786;7.840;2022-11-20T00:31:19;7.47;;;5.20;;
21806;SDS011;11065;50.786;7.840;2022-11-20T00:33:47;8.60;;;5.93;;
21806;SDS011;11065;50.786;7.840;2022-11-20T00:36:15;8.53;;;5.40;;
21806;SDS011;11065;50.786;7.840;2022-11-20T00:38:44;8.43;;;5.77;;
21806;SDS011;11065;50.786;7.840;2022-11-20T00:41:13;8.67;;;5.80;;
21806;SDS011;11065;50.786;7.840;2022-11-20T00:43:41;8.17;;;5.57;;
21806;SDS011;11065;50.786;7.840;2022-11-20T00:46:15;8.90;;;6.20;;
21806;SDS011;11065;50.786;7.840;2022-11-20T00:48:44;7.87;;;5.50;;
21806;SDS011;11065;50.786;7.840;2022-11-20T00:51:12;8.77;;;6.03;;
21806;SDS011;11065;50.786;7.840;2022-11-20T00:53:41;8.47;;;5.90;;
21806;SDS011;11065;50.786;7.840;2022-11-20T00:56:12;8.43;;;5.83;;
21806;SDS011;11065;50.786;7.840;2022-11-20T00:58:41;9.27;;;5.77;;
21806;SDS011;11065;50.786;7.840;2022-11-20T01:01:10;7.70;;;5.73;;
21806;SDS011;11065;50.786;7.840;2022-11-20T01:03:43;8.40;;;5.67;;
21806;SDS011;11065;50.786;7.840;2022-11-20T01:06:15;9.50;;;6.37;;
21806;SDS011;11065;50.786;7.840;2022-11-20T01:08:44;8.10;;;5.77;;
21806;SDS011;11065;50.786;7.840;2022-11-20T01:11:16;8.23;;;5.93;;
21806;SDS011;11065;50.786;7.840;2022-11-20T01:13:45;8.50;;;5.90;;
21806;SDS011;11065;50.786;7.840;2022-11-20T01:18:46;9.10;;;6.10;;
21806;SDS011;11065;50.786;7.840;2022-11-20T01:21:15;7.77;;;5.60;;
21806;SDS011;11065;50.786;7.840;2022-11-20T01:23:53;8.83;;;5.93;;
21806;SDS011;11065;50.786;7.840;2022-11-20T01:26:30;7.47;;;5.53;;
21806;SDS011;11065;50.786;7.840;2022-11-20T01:28:59;8.93;;;5.93;;
21806;SDS011;11065;50.786;7.840;2022-11-20T01:31:31;8.00;;;5.57;;
21806;SDS011;11065;50.786;7.840;2022-11-20T01:34:01;8.70;;;5.97;;
21806;SDS011;11065;50.786;7.840;2022-11-20T01:36:32;9.20;;;6.07;;
21806;SDS011;11065;50.786;7.840;2022-11-20T01:39:03;9.27;;;6.20;;
21806;SDS011;11065;50.786;7.840;2022-11-20T01:41:37;8.63;;;5.90;;
21806;SDS011;11065;50.786;7.840;2022-11-20T01:50:03;9.37;;;5.93;;
21806;SDS011;11065;50.786;7.840;2022-11-20T01:55:19;9.00;;;6.57;;
21806;SDS011;11065;50.786;7.840;2022-11-20T01:57:51;9.17;;;6.47;;
21806;SDS011;11065;50.786;7.840;2022-11-20T02:00:19;10.80;;;6.97;;
21806;SDS011;11065;50.786;7.840;2022-11-20T02:02:57;9.20;;;6.60;;
21806;SDS011;11065;50.786;7.840;2022-11-20T02:05:28;9.93;;;6.83;;
21806;SDS011;11065;50.786;7.840;2022-11-20T02:08:13;10.40;;;6.87;;
21806;SDS011;11065;50.786;7.840;2022-11-20T02:10:40;10.40;;;6.90;;
21806;SDS011;11065;50.786;7.840;2022-11-20T02:13:07;9.40;;;6.60;;
21806;SDS011;11065;50.786;7.840;2022-11-20T02:15:53;10.43;;;6.77;;
21806;SDS011;11065;50.786;7.840;2022-11-20T02:18:21;8.93;;;6.67;;
21806;SDS011;11065;50.786;7.840;2022-11-20T02:20:48;8.97;;;6.83;;
21806;SDS011;11065;50.786;7.840;2022-11-20T02:23:30;10.60;;;7.17;;
21806;SDS011;11065;50.786;7.840;2022-11-20T02:26:04;8.97;;;6.43;;
21806;SDS011;11065;50.786;7.840;2022-11-20T02:28:35;9.60;;;6.37;;
21806;SDS011;11065;50.786;7.840;2022-11-20T02:31:02;8.93;;;6.30;;
21806;SDS011;11065;50.786;7.840;2022-11-20T02:33:29;9.10;;;6.37;;
21806;SDS011;11065;50.786;7.840;2022-11-20T02:35:56;8.43;;;6.20;;
21806;SDS011;11065;50.786;7.840;2022-11-20T02:38:23;8.53;;;6.07;;
21806;SDS011;11065;50.786;7.840;2022-11-20T02:40:50;9.13;;;6.67;;
21806;SDS011;11065;50.786;7.840;2022-11-20T02:43:21;10.90;;;7.10;;
21806;SDS011;11065;50.786;7.840;2022-11-20T02:45:48;8.67;;;6.60;;
21806;SDS011;11065;50.786;7.840;2022-11-20T02:48:15;9.27;;;6.83;;
21806;SDS011;11065;50.786;7.840;2022-11-20T02:50:42;9.93;;;6.53;;
21806;SDS011;11065;50.786;7.840;2022-11-20T02:53:09;10.60;;;6.80;;
21806;SDS011;11065;50.786;7.840;2022-11-20T02:55:36;10.13;;;6.47;;
21806;SDS011;11065;50.786;7.840;2022-11-20T02:58:03;10.20;;;7.03;;
21806;SDS011;11065;50.786;7.840;2022-11-20T03:00:30;9.37;;;6.27;;
21806;SDS011;11065;50.786;7.840;2022-11-20T03:02:58;10.23;;;6.63;;
21806;SDS011;11065;50.786;7.840;2022-11-20T03:05:25;9.07;;;6.47;;
21806;SDS011;11065;50.786;7.840;2022-11-20T03:07:52;9.63;;;7.00;;
21806;SDS011;11065;50.786;7.840;2022-11-20T03:10:19;8.97;;;6.57;;
21806;SDS011;11065;50.786;7.840;2022-11-20T03:12:46;9.40;;;6.83;;
21806;SDS011;11065;50.786;7.840;2022-11-20T03:15:13;8.97;;;6.37;;
21806;SDS011;11065;50.786;7.840;2022-11-20T03:17:40;9.67;;;6.97;;
21806;SDS011;11065;50.786;7.840;2022-11-20T03:20:07;9.13;;;6.67;;
21806;SDS011;11065;50.786;7.840;2022-11-20T03:22:35;9.87;;;6.73;;
21806;SDS011;11065;50.786;7.840;2022-11-20T03:25:02;9.50;;;6.37;;
21806;SDS011;11065;50.786;7.840;2022-11-20T03:27:33;9.27;;;6.60;;
21806;SDS011;11065;50.786;7.840;2022-11-20T03:30:00;8.80;;;6.03;;
21806;SDS011;11065;50.786;7.840;2022-11-20T03:32:28;8.50;;;6.27;;
21806;SDS011;11065;50.786;7.840;2022-11-20T03:34:54;8.03;;;5.97;;
21806;SDS011;11065;50.786;7.840;2022-11-20T03:37:21;11.10;;;7.33;;
21806;SDS011;11065;50.786;7.840;2022-11-20T03:39:48;9.30;;;6.47;;
21806;SDS011;11065;50.786;7.840;2022-11-20T03:42:15;8.77;;;6.20;;
21806;SDS011;11065;50.786;7.840;2022-11-20T03:45:00;7.73;;;6.37;;
21806;SDS011;11065;50.786;7.840;2022-11-20T03:47:27;10.30;;;6.40;;
21806;SDS011;11065;50.786;7.840;2022-11-20T03:49:54;9.77;;;6.50;;
21806;SDS011;11065;50.786;7.840;2022-11-20T03:52:21;9.50;;;6.37;;
21806;SDS011;11065;50.786;7.840;2022-11-20T03:54:48;9.10;;;6.23;;
21806;SDS011;11065;50.786;7.840;2022-11-20T03:57:15;9.27;;;6.43;;
21806;SDS011;11065;50.786;7.840;2022-11-20T03:59:42;9.03;;;6.27;;
21806;SDS011;11065;50.786;7.840;2022-11-20T04:02:09;9.50;;;6.50;;
21806;SDS011;11065;50.786;7.840;2022-11-20T04:04:35;10.00;;;6.57;;
21806;SDS011;11065;50.786;7.840;2022-11-20T04:07:02;8.60;;;6.20;;
21806;SDS011;11065;50.786;7.840;2022-11-20T04:09:30;9.83;;;6.60;;
21806;SDS011;11065;50.786;7.840;2022-11-20T04:11:59;8.47;;;6.30;;
21806;SDS011;11065;50.786;7.840;2022-11-20T04:14:26;8.33;;;6.23;;
21806;SDS011;11065;50.786;7.840;2022-11-20T04:16:53;8.77;;;6.53;;
21806;SDS011;11065;50.786;7.840;2022-11-20T04:19:20;9.67;;;6.37;;
21806;SDS011;11065;50.786;7.840;2022-11-20T04:21:48;12.17;;;6.60;;
21806;SDS011;11065;50.786;7.840;2022-11-20T04:24:15;10.20;;;6.93;;
21806;SDS011;11065;50.786;7.840;2022-11-20T04:26:42;9.90;;;6.70;;
21806;SDS011;11065;50.786;7.840;2022-11-20T04:29:10;9.00;;;6.53;;
21806;SDS011;11065;50.786;7.840;2022-11-20T04:31:38;9.57;;;6.60;;
21806;SDS011;11065;50.786;7.840;2022-11-20T04:34:05;8.70;;;6.30;;
21806;SDS011;11065;50.786;7.840;2022-11-20T04:36:33;9.87;;;6.80;;
21806;SDS011;11065;50.786;7.840;2022-11-20T04:39:02;9.30;;;6.77;;
21806;SDS011;11065;50.786;7.840;2022-11-20T04:41:32;9.67;;;7.07;;
21806;SDS011;11065;50.786;7.840;2022-11-20T04:44:00;10.10;;;7.00;;
21806;SDS011;11065;50.786;7.840;2022-11-20T04:46:30;9.17;;;6.60;;
21806;SDS011;11065;50.786;7.840;2022-11-20T04:49:00;8.63;;;6.47;;
21806;SDS011;11065;50.786;7.840;2022-11-20T04:51:27;9.17;;;6.73;;
21806;SDS011;11065;50.786;7.840;2022-11-20T04:53:54;10.37;;;6.73;;
21806;SDS011;11065;50.786;7.840;2022-11-20T04:56:21;9.83;;;6.90;;
21806;SDS011;11065;50.786;7.840;2022-11-20T04:58:48;9.70;;;6.67;;
21806;SDS011;11065;50.786;7.840;2022-11-20T05:01:19;9.63;;;6.93;;
21806;SDS011;11065;50.786;7.840;2022-11-20T05:03:48;10.03;;;6.93;;
21806;SDS011;11065;50.786;7.840;2022-11-20T05:06:16;10.23;;;6.87;;
21806;SDS011;11065;50.786;7.840;2022-11-20T05:08:45;9.60;;;6.43;;
21806;SDS011;11065;50.786;7.840;2022-11-20T05:11:13;10.87;;;7.00;;
21806;SDS011;11065;50.786;7.840;2022-11-20T05:13:45;9.30;;;6.70;;
21806;SDS011;11065;50.786;7.840;2022-11-20T05:16:13;8.53;;;6.80;;
21806;SDS011;11065;50.786;7.840;2022-11-20T05:18:50;9.07;;;6.40;;
21806;SDS011;11065;50.786;7.840;2022-11-20T05:21:18;9.57;;;6.33;;
21806;SDS011;11065;50.786;7.840;2022-11-20T05:23:45;9.40;;;6.63;;
21806;SDS011;11065;50.786;7.840;2022-11-20T05:26:14;8.70;;;6.43;;
21806;SDS011;11065;50.786;7.840;2022-11-20T05:28:42;9.13;;;6.40;;
21806;SDS011;11065;50.786;7.840;2022-11-20T05:31:11;10.73;;;6.63;;
21806;SDS011;11065;50.786;7.840;2022-11-20T05:33:39;8.60;;;6.40;;
21806;SDS011;11065;50.786;7.840;2022-11-20T05:36:07;11.23;;;7.27;;
21806;SDS011;11065;50.786;7.840;2022-11-20T05:38:35;12.40;;;7.03;;
21806;SDS011;11065;50.786;7.840;2022-11-20T05:41:03;10.07;;;6.93;;
21806;SDS011;11065;50.786;7.840;2022-11-20T05:43:35;10.50;;;6.43;;
21806;SDS011;11065;50.786;7.840;2022-11-20T05:46:04;8.30;;;6.10;;
21806;SDS011;11065;50.786;7.840;2022-11-20T05:48:32;9.40;;;6.53;;
21806;SDS011;11065;50.786;7.840;2022-11-20T05:51:00;8.90;;;6.73;;
21806;SDS011;11065;50.786;7.840;2022-11-20T05:53:28;9.43;;;6.93;;
21806;SDS011;11065;50.786;7.840;2022-11-20T05:55:56;9.00;;;6.50;;
21806;SDS011;11065;50.786;7.840;2022-11-20T05:58:36;9.00;;;6.50;;
21806;SDS011;11065;50.786;7.840;2022-11-20T06:01:17;10.47;;;6.83;;
21806;SDS011;11065;50.786;7.840;2022-11-20T06:03:46;8.43;;;6.37;;
21806;SDS011;11065;50.786;7.840;2022-11-20T06:06:15;9.30;;;6.67;;
21806;SDS011;11065;50.786;7.840;2022-11-20T06:08:42;9.57;;;6.80;;
21806;SDS011;11065;50.786;7.840;2022-11-20T06:11:11;9.67;;;6.70;;
21806;SDS011;11065;50.786;7.840;2022-11-20T06:13:39;9.47;;;6.87;;
21806;SDS011;11065;50.786;7.840;2022-11-20T06:16:08;10.20;;;6.63;;
21806;SDS011;11065;50.786;7.840;2022-11-20T06:18:36;8.83;;;6.80;;
21806;SDS011;11065;50.786;7.840;2022-11-20T06:21:16;10.10;;;7.33;;
21806;SDS011;11065;50.786;7.840;2022-11-20T06:23:45;10.70;;;7.20;;
21806;SDS011;11065;50.786;7.840;2022-11-20T06:26:17;10.50;;;7.30;;
21806;SDS011;11065;50.786;7.840;2022-11-20T06:28:46;9.63;;;6.80;;
21806;SDS011;11065;50.786;7.840;2022-11-20T06:31:14;9.70;;;6.77;;
21806;SDS011;11065;50.786;7.840;2022-11-20T06:33:43;9.83;;;6.77;;
21806;SDS011;11065;50.786;7.840;2022-11-20T06:36:11;9.50;;;7.03;;
21806;SDS011;11065;50.786;7.840;2022-11-20T06:38:40;10.37;;;6.73;;
21806;SDS011;11065;50.786;7.840;2022-11-20T06:41:08;9.87;;;7.13;;
21806;SDS011;11065;50.786;7.840;2022-11-20T06:43:38;11.63;;;7.43;;
21806;SDS011;11065;50.786;7.840;2022-11-20T06:46:05;9.97;;;7.17;;
21806;SDS011;11065;50.786;7.840;2022-11-20T06:48:32;10.10;;;6.50;;
21806;SDS011;11065;50.786;7.840;2022-11-20T06:50:59;10.00;;;6.87;;
21806;SDS011;11065;50.786;7.840;2022-11-20T06:53:26;10.23;;;6.97;;
21806;SDS011;11065;50.786;7.840;2022-11-20T06:55:55;10.63;;;7.10;;
21806;SDS011;11065;50.786;7.840;2022-11-20T06:58:23;11.07;;;7.43;;
21806;SDS011;11065;50.786;7.840;2022-11-20T07:00:52;11.10;;;7.60;;
21806;SDS011;11065;50.786;7.840;2022-11-20T07:03:19;10.67;;;7.40;;
21806;SDS011;11065;50.786;7.840;2022-11-20T07:05:46;10.97;;;7.13;;
21806;SDS011;11065;50.786;7.840;2022-11-20T07:08:13;10.27;;;7.13;;
21806;SDS011;11065;50.786;7.840;2022-11-20T07:10:40;10.57;;;7.10;;
21806;SDS011;11065;50.786;7.840;2022-11-20T07:13:06;9.63;;;6.67;;
21806;SDS011;11065;50.786;7.840;2022-11-20T07:15:33;11.30;;;7.37;;
21806;SDS011;11065;50.786;7.840;2022-11-20T07:18:01;11.00;;;7.30;;
21806;SDS011;11065;50.786;7.840;2022-11-20T07:20:28;9.70;;;7.17;;
21806;SDS011;11065;50.786;7.840;2022-11-20T07:22:55;11.43;;;7.23;;
21806;SDS011;11065;50.786;7.840;2022-11-20T07:25:26;11.53;;;8.33;;
21806;SDS011;11065;50.786;7.840;2022-11-20T07:27:57;12.40;;;8.80;;
21806;SDS011;11065;50.786;7.840;2022-11-20T07:30:25;12.53;;;8.13;;
21806;SDS011;11065;50.786;7.840;2022-11-20T07:32:54;15.03;;;9.63;;
21806;SDS011;11065;50.786;7.840;2022-11-20T07:35:22;14.37;;;8.83;;
21806;SDS011;11065;50.786;7.840;2022-11-20T07:37:50;14.13;;;8.37;;
21806;SDS011;11065;50.786;7.840;2022-11-20T07:40:17;13.20;;;8.70;;
21806;SDS011;11065;50.786;7.840;2022-11-20T07:42:51;14.07;;;9.50;;
21806;SDS011;11065;50.786;7.840;2022-11-20T07:45:19;13.47;;;8.60;;
21806;SDS011;11065;50.786;7.840;2022-11-20T07:47:48;13.73;;;9.60;;
21806;SDS011;11065;50.786;7.840;2022-11-20T07:50:15;15.60;;;10.30;;
21806;SDS011;11065;50.786;7.840;2022-11-20T07:52:42;16.80;;;10.90;;
21806;SDS011;11065;50.786;7.840;2022-11-20T07:55:10;16.90;;;10.77;;
21806;SDS011;11065;50.786;7.840;2022-11-20T07:57:37;16.90;;;10.13;;
21806;SDS011;11065;50.786;7.840;2022-11-20T08:00:05;18.13;;;11.47;;
21806;SDS011;11065;50.786;7.840;2022-11-20T08:02:41;17.13;;;9.67;;
21806;SDS011;11065;50.786;7.840;2022-11-20T08:05:09;15.43;;;10.00;;
21806;SDS011;11065;50.786;7.840;2022-11-20T08:07:37;17.70;;;10.87;;
21806;SDS011;11065;50.786;7.840;2022-11-20T08:10:06;16.53;;;9.97;;
21806;SDS011;11065;50.786;7.840;2022-11-20T08:12:34;15.87;;;10.07;;
21806;SDS011;11065;50.786;7.840;2022-11-20T08:15:19;16.03;;;9.97;;
21806;SDS011;11065;50.786;7.840;2022-11-20T08:17:46;15.33;;;9.80;;
21806;SDS011;11065;50.786;7.840;2022-11-20T08:20:34;15.57;;;9.67;;
21806;SDS011;11065;50.786;7.840;2022-11-20T08:23:02;16.37;;;10.23;;
21806;SDS011;11065;50.786;7.840;2022-11-20T08:25:33;14.87;;;10.17;;
21806;SDS011;11065;50.786;7.840;2022-11-20T08:28:01;16.23;;;10.93;;
21806;SDS011;11065;50.786;7.840;2022-11-20T08:30:45;16.53;;;10.43;;
21806;SDS011;11065;50.786;7.840;2022-11-20T08:33:12;16.80;;;10.50;;
21806;SDS011;11065;50.786;7.840;2022-11-20T08:35:39;17.97;;;11.30;;
21806;SDS011;11065;50.786;7.840;2022-11-20T08:38:08;17.53;;;10.93;;
21806;SDS011;11065;50.786;7.840;2022-11-20T08:40:35;17.63;;;11.17;;
21806;SDS011;11065;50.786;7.840;2022-11-20T08:43:02;19.00;;;12.03;;
21806;SDS011;11065;50.786;7.840;2022-11-20T08:45:29;17.90;;;11.13;;
21806;SDS011;11065;50.786;7.840;2022-11-20T08:48:00;17.03;;;10.73;;
21806;SDS011;11065;50.786;7.840;2022-11-20T08:50:28;16.33;;;11.07;;
21806;SDS011;11065;50.786;7.840;2022-11-20T08:53:05;18.77;;;11.63;;
21806;SDS011;11065;50.786;7.840;2022-11-20T08:55:32;16.33;;;10.23;;
21806;SDS011;11065;50.786;7.840;2022-11-20T08:58:05;14.73;;;9.50;;
21806;SDS011;11065;50.786;7.840;2022-11-20T09:00:33;15.23;;;9.57;;
21806;SDS011;11065;50.786;7.840;2022-11-20T09:03:00;15.07;;;9.43;;
21806;SDS011;11065;50.786;7.840;2022-11-20T09:05:28;14.23;;;9.63;;
21806;SDS011;11065;50.786;7.840;2022-11-20T09:07:58;13.57;;;9.30;;
21806;SDS011;11065;50.786;7.840;2022-11-20T09:10:26;13.47;;;8.90;;
21806;SDS011;11065;50.786;7.840;2022-11-20T09:12:53;13.77;;;9.17;;
21806;SDS011;11065;50.786;7.840;2022-11-20T09:15:22;12.43;;;8.23;;
21806;SDS011;11065;50.786;7.840;2022-11-20T09:17:53;14.97;;;9.93;;
21806;SDS011;11065;50.786;7.840;2022-11-20T09:20:21;15.90;;;9.97;;
21806;SDS011;11065;50.786;7.840;2022-11-20T09:22:48;14.97;;;9.30;;
21806;SDS011;11065;50.786;7.840;2022-11-20T09:25:15;14.10;;;9.17;;
21806;SDS011;11065;50.786;7.840;2022-11-20T09:27:42;13.97;;;9.57;;
21806;SDS011;11065;50.786;7.840;2022-11-20T09:30:15;14.43;;;9.33;;
21806;SDS011;11065;50.786;7.840;2022-11-20T09:32:42;13.33;;;9.73;;
21806;SDS011;11065;50.786;7.840;2022-11-20T09:35:09;13.40;;;9.07;;
21806;SDS011;11065;50.786;7.840;2022-11-20T09:37:37;14.03;;;9.73;;
21806;SDS011;11065;50.786;7.840;2022-11-20T09:40:04;13.07;;;8.90;;
21806;SDS011;11065;50.786;7.840;2022-11-20T09:47:59;11.67;;;8.20;;
21806;SDS011;11065;50.786;7.840;2022-11-20T09:50:31;14.17;;;9.43;;
21806;SDS011;11065;50.786;7.840;2022-11-20T09:53:13;14.37;;;9.33;;
21806;SDS011;11065;50.786;7.840;2022-11-20T09:55:57;12.73;;;8.53;;
21806;SDS011;11065;50.786;7.840;2022-11-20T09:58:48;12.57;;;8.60;;
21806;SDS011;11065;50.786;7.840;2022-11-20T10:01:17;14.30;;;8.80;;
21806;SDS011;11065;50.786;7.840;2022-11-20T10:06:32;14.13;;;9.10;;
21806;SDS011;11065;50.786;7.840;2022-11-20T10:12:00;14.53;;;9.83;;
21806;SDS011;11065;50.786;7.840;2022-11-20T10:26:01;13.73;;;8.60;;
21806;SDS011;11065;50.786;7.840;2022-11-20T10:31:48;14.33;;;9.40;;
21806;SDS011;11065;50.786;7.840;2022-11-20T10:37:15;11.67;;;8.60;;
21806;SDS011;11065;50.786;7.840;2022-11-20T10:42:56;13.33;;;8.77;;
21806;SDS011;11065;50.786;7.840;2022-11-20T10:50:49;13.37;;;9.10;;
21806;SDS011;11065;50.786;7.840;2022-11-20T10:59:12;12.83;;;8.83;;
21806;SDS011;11065;50.786;7.840;2022-11-20T11:01:48;13.80;;;9.63;;
21806;SDS011;11065;50.786;7.840;2022-11-20T11:06:58;14.47;;;9.20;;
21806;SDS011;11065;50.786;7.840;2022-11-20T11:09:41;12.40;;;8.73;;
21806;SDS011;11065;50.786;7.840;2022-11-20T11:12:10;15.17;;;9.70;;
21806;SDS011;11065;50.786;7.840;2022-11-20T11:14:41;12.23;;;9.20;;
21806;SDS011;11065;50.786;7.840;2022-11-20T11:22:34;14.67;;;9.37;;
21806;SDS011;11065;50.786;7.840;2022-11-20T11:25:27;13.90;;;9.07;;
21806;SDS011;11065;50.786;7.840;2022-11-20T11:28:03;15.20;;;9.57;;
21806;SDS011;11065;50.786;7.840;2022-11-20T11:30:44;14.27;;;9.10;;
21806;SDS011;11065;50.786;7.840;2022-11-20T11:33:17;14.03;;;9.03;;
21806;SDS011;11065;50.786;7.840;2022-11-20T11:35:47;14.90;;;9.90;;
21806;SDS011;11065;50.786;7.840;2022-11-20T11:38:19;15.03;;;9.13;;
21806;SDS011;11065;50.786;7.840;2022-11-20T11:40:53;14.53;;;9.57;;
21806;SDS011;11065;50.786;7.840;2022-11-20T11:43:24;15.03;;;9.23;;
21806;SDS011;11065;50.786;7.840;2022-11-20T11:46:23;13.63;;;9.17;;
21806;SDS011;11065;50.786;7.840;2022-11-20T11:51:39;12.70;;;9.10;;
21806;SDS011;11065;50.786;7.840;2022-11-20T11:57:05;13.47;;;8.80;;
21806;SDS011;11065;50.786;7.840;2022-11-20T12:00:03;12.50;;;9.30;;
21806;SDS011;11065;50.786;7.840;2022-11-20T12:02:35;12.50;;;8.73;;
21806;SDS011;11065;50.786;7.840;2022-11-20T12:05:20;15.33;;;9.50;;
21806;SDS011;11065;50.786;7.840;2022-11-20T12:08:09;13.67;;;8.77;;
21806;SDS011;11065;50.786;7.840;2022-11-20T12:10:52;12.97;;;8.30;;
21806;SDS011;11065;50.786;7.840;2022-11-20T12:13:41;11.97;;;7.97;;
21806;SDS011;11065;50.786;7.840;2022-11-20T12:16:19;12.57;;;8.63;;
21806;SDS011;11065;50.786;7.840;2022-11-20T12:18:51;11.90;;;8.43;;
21806;SDS011;11065;50.786;7.840;2022-11-20T12:21:20;13.47;;;8.80;;
21806;SDS011;11065;50.786;7.840;2022-11-20T12:24:02;13.97;;;8.73;;
21806;SDS011;11065;50.786;7.840;2022-11-20T12:29:29;14.27;;;8.90;;
21806;SDS011;11065;50.786;7.840;2022-11-20T12:35:32;12.57;;;8.27;;
21806;SDS011;11065;50.786;7.840;2022-11-20T12:43:30;15.03;;;10.40;;
21806;SDS011;11065;50.786;7.840;2022-11-20T12:46:32;14.43;;;9.17;;
21806;SDS011;11065;50.786;7.840;2022-11-20T12:52:11;17.70;;;10.43;;
21806;SDS011;11065;50.786;7.840;2022-11-20T12:57:49;14.47;;;10.00;;
21806;SDS011;11065;50.786;7.840;2022-11-20T13:00:22;15.30;;;9.63;;
21806;SDS011;11065;50.786;7.840;2022-11-20T13:03:08;15.63;;;10.27;;
21806;SDS011;11065;50.786;7.840;2022-11-20T13:05:51;15.90;;;10.13;;
21806;SDS011;11065;50.786;7.840;2022-11-20T13:08:36;15.63;;;10.43;;
21806;SDS011;11065;50.786;7.840;2022-11-20T13:11:07;15.03;;;10.20;;
21806;SDS011;11065;50.786;7.840;2022-11-20T13:13:46;15.27;;;10.40;;
21806;SDS011;11065;50.786;7.840;2022-11-20T13:17:07;14.20;;;9.50;;
21806;SDS011;11065;50.786;7.840;2022-11-20T13:19:15;14.03;;;10.27;;
21806;SDS011;11065;50.786;7.840;2022-11-20T13:21:44;13.60;;;9.43;;
21806;SDS011;11065;50.786;7.840;2022-11-20T13:26:46;16.30;;;10.67;;
21806;SDS011;11065;50.786;7.840;2022-11-20T13:29:17;14.83;;;10.00;;
21806;SDS011;11065;50.786;7.840;2022-11-20T13:31:46;15.87;;;10.17;;
21806;SDS011;11065;50.786;7.840;2022-11-20T13:34:22;14.70;;;9.77;;
21806;SDS011;11065;50.786;7.840;2022-11-20T13:36:52;14.10;;;9.27;;
21806;SDS011;11065;50.786;7.840;2022-11-20T13:39:28;13.03;;;9.10;;
21806;SDS011;11065;50.786;7.840;2022-11-20T13:42:01;13.20;;;8.90;;
21806;SDS011;11065;50.786;7.840;2022-11-20T13:44:46;13.63;;;9.33;;
21806;SDS011;11065;50.786;7.840;2022-11-20T13:47:21;14.60;;;9.70;;
21806;SDS011;11065;50.786;7.840;2022-11-20T13:49:52;14.07;;;9.70;;
21806;SDS011;11065;50.786;7.840;2022-11-20T13:52:47;12.63;;;8.97;;
21806;SDS011;11065;50.786;7.840;2022-11-20T14:01:01;16.23;;;10.70;;
21806;SDS011;11065;50.786;7.840;2022-11-20T14:03:46;15.73;;;10.63;;
21806;SDS011;11065;50.786;7.840;2022-11-20T14:06:32;17.40;;;11.37;;
21806;SDS011;11065;50.786;7.840;2022-11-20T14:09:24;15.57;;;10.80;;
21806;SDS011;11065;50.786;7.840;2022-11-20T14:11:53;14.07;;;10.13;;
21806;SDS011;11065;50.786;7.840;2022-11-20T14:14:27;17.30;;;11.27;;
21806;SDS011;11065;50.786;7.840;2022-11-20T14:17:16;17.13;;;11.67;;
21806;SDS011;11065;50.786;7.840;2022-11-20T14:19:49;16.47;;;11.27;;
21806;SDS011;11065;50.786;7.840;2022-11-20T14:27:33;18.33;;;11.83;;
21806;SDS011;11065;50.786;7.840;2022-11-20T14:30:03;21.57;;;14.57;;
21806;SDS011;11065;50.786;7.840;2022-11-20T14:32:30;18.27;;;12.47;;
21806;SDS011;11065;50.786;7.840;2022-11-20T14:34:59;17.83;;;12.20;;
21806;SDS011;11065;50.786;7.840;2022-11-20T14:37:33;19.60;;;12.37;;
21806;SDS011;11065;50.786;7.840;2022-11-20T14:40:05;15.80;;;11.03;;
21806;SDS011;11065;50.786;7.840;2022-11-20T14:42:52;17.23;;;10.90;;
21806;SDS011;11065;50.786;7.840;2022-11-20T14:45:20;16.77;;;11.10;;
21806;SDS011;11065;50.786;7.840;2022-11-20T14:47:48;15.00;;;10.67;;
21806;SDS011;11065;50.786;7.840;2022-11-20T14:50:19;18.27;;;11.97;;
21806;SDS011;11065;50.786;7.840;2022-11-20T14:55:33;17.17;;;11.60;;
21806;SDS011;11065;50.786;7.840;2022-11-20T14:58:06;15.90;;;11.53;;
21806;SDS011;11065;50.786;7.840;2022-11-20T15:00:58;16.70;;;11.37;;
21806;SDS011;11065;50.786;7.840;2022-11-20T15:03:38;16.10;;;11.23;;
21806;SDS011;11065;50.786;7.840;2022-11-20T15:06:07;16.33;;;10.50;;
21806;SDS011;11065;50.786;7.840;2022-11-20T15:08:37;16.30;;;11.03;;
21806;SDS011;11065;50.786;7.840;2022-11-20T15:11:14;21.97;;;11.90;;
21806;SDS011;11065;50.786;7.840;2022-11-20T15:13:44;18.20;;;12.33;;
21806;SDS011;11065;50.786;7.840;2022-11-20T15:16:18;21.00;;;12.83;;
21806;SDS011;11065;50.786;7.840;2022-11-20T15:18:47;19.17;;;13.60;;
21806;SDS011;11065;50.786;7.840;2022-11-20T15:21:15;20.63;;;12.77;;
21806;SDS011;11065;50.786;7.840;2022-11-20T15:23:44;18.00;;;12.40;;
21806;SDS011;11065;50.786;7.840;2022-11-20T15:26:11;16.33;;;11.10;;
21806;SDS011;11065;50.786;7.840;2022-11-20T15:28:46;16.57;;;11.07;;
21806;SDS011;11065;50.786;7.840;2022-11-20T15:31:17;18.63;;;12.17;;
21806;SDS011;11065;50.786;7.840;2022-11-20T15:33:47;16.40;;;10.73;;
21806;SDS011;11065;50.786;7.840;2022-11-20T15:36:14;15.33;;;10.37;;
21806;SDS011;11065;50.786;7.840;2022-11-20T15:38:41;13.67;;;10.10;;
21806;SDS011;11065;50.786;7.840;2022-11-20T15:41:08;14.97;;;10.07;;
21806;SDS011;11065;50.786;7.840;2022-11-20T15:43:36;15.80;;;11.27;;
21806;SDS011;11065;50.786;7.840;2022-11-20T15:46:05;15.83;;;10.73;;
21806;SDS011;11065;50.786;7.840;2022-11-20T15:48:37;17.30;;;10.67;;
21806;SDS011;11065;50.786;7.840;2022-11-20T15:53:58;16.13;;;10.90;;
21806;SDS011;11065;50.786;7.840;2022-11-20T15:56:25;17.23;;;11.53;;
21806;SDS011;11065;50.786;7.840;2022-11-20T15:58:52;15.93;;;11.53;;
21806;SDS011;11065;50.786;7.840;2022-11-20T16:01:22;17.63;;;11.67;;
21806;SDS011;11065;50.786;7.840;2022-11-20T16:03:52;17.20;;;11.63;;
21806;SDS011;11065;50.786;7.840;2022-11-20T16:06:19;14.57;;;11.47;;
21806;SDS011;11065;50.786;7.840;2022-11-20T16:08:46;17.53;;;11.87;;
21806;SDS011;11065;50.786;7.840;2022-11-20T16:11:13;15.40;;;11.37;;
21806;SDS011;11065;50.786;7.840;2022-11-20T16:13:42;15.20;;;10.83;;
21806;SDS011;11065;50.786;7.840;2022-11-20T16:16:32;14.20;;;10.07;;
21806;SDS011;11065;50.786;7.840;2022-11-20T16:19:01;15.63;;;10.47;;
21806;SDS011;11065;50.786;7.840;2022-11-20T16:21:28;13.90;;;10.00;;
21806;SDS011;11065;50.786;7.840;2022-11-20T16:23:58;13.70;;;9.33;;
21806;SDS011;11065;50.786;7.840;2022-11-20T16:26:26;13.37;;;8.90;;
21806;SDS011;11065;50.786;7.840;2022-11-20T16:28:54;12.67;;;8.77;;
21806;SDS011;11065;50.786;7.840;2022-11-20T16:31:21;12.47;;;8.93;;
21806;SDS011;11065;50.786;7.840;2022-11-20T16:33:48;10.40;;;7.03;;
21806;SDS011;11065;50.786;7.840;2022-11-20T16:36:23;9.70;;;6.30;;
21806;SDS011;11065;50.786;7.840;2022-11-20T16:38:55;8.37;;;4.57;;
21806;SDS011;11065;50.786;7.840;2022-11-20T16:41:24;8.47;;;4.50;;
21806;SDS011;11065;50.786;7.840;2022-11-20T16:43:53;6.87;;;3.97;;